King Hill, ID (83633)

4:29 PM MDT on September 21, 2014 (GMT -0600)
Reverend's Wx | Change Station
CLOSE
Current Station
Personal Weather Station
Location: Glenns Ferry, ID
Elevation: 2600 ft
Nearby Weather Stations
Active Advisory: Flash Flood Watch

Elev 2600 ft 42.98 °N, 115.30 °W | Updated 16 seconds ago

Overcast
Overcast
75.4 °F
Feels Like 78 °F
N
10.7
Wind Variable Wind from NE
Gusts 12.1 mph

Today
High -- | Low -- °F
--% Chance of Precip.
Yesterday
High -- | Low -- °F
Precip. -- in
7:27 AM 7:39 PM
Waning Crescent, 5% visible
Pressure 29.96 in
Visibility 10.0 miles
Clouds Few 7500 ft
Overcast 9000 ft
Heat Index 78 °F
Dew Point 57 °F
Humidity 53%
Rainfall 0.00 in
Snow Depth 0 in , 0 in , 0 in
UV 1 out of 12
Pollen 8.50 out of 12
Ozone Good
PM2.5 Good
Flu Activity Not available.
METAR KMUO 212158Z AUTO 12015G19KT 10SM -RA FEW075 OVC090 25/09 A3001 RMK AO2 SLP145 T02450093 $

More Conditions Fewer Conditions

Pressure 29.96 in
Visibility 10.0 miles
Clouds Few 7500 ft
Overcast 9000 ft
Heat Index 78 °F
Dew Point 57 °F
Humidity 53%
Rainfall 0.00 in
Snow Depth 0 in , 0 in , 0 in
UV 1 out of 12
Pollen 8.50 out of 12
Ozone Good
PM2.5 Good
Flu Activity Not available.
METAR KMUO 212158Z AUTO 12015G19KT 10SM -RA FEW075 OVC090 25/09 A3001 RMK AO2 SLP145 T02450093 $

More Conditions Fewer Conditions

10-Day Weather Forecast

Almanac

Astronomy

Sep. 21, 2014 Rise Set
Actual Time 7:27 AM MDT 7:39 PM MDT
Civil Twilight 6:58 AM MDT 8:08 PM MDT
Nautical Twilight 6:25 AM MDT 8:41 PM MDT
Astronomical Twilight 5:51 AM MDT 9:15 PM MDT
Moon 5:02 AM MDT 6:20 PM MDT
Length of Visible Light 13h 09m
Length of Day
12h 12m
Tomorrow will be 2m 53s shorter.
Waning Crescent, 5% of the Moon is Illuminated
Today
Waning Crescent
Sep 24
New
Oct 1
First Quarter
Oct 8
Full
Oct 15
Last Quarter

Today's Extremes

State Highs State Lows

Community

WunderPhotos

Upload Photos

1,755,278 photos uploaded!

WunderBlogs® & News

Nearby

Air Quality

  Air Quality AQ Index Pollutant
Yesterday Good
PM10
Yesterday Good
OZONE
Current Good
PM2.5
Current Good
OZONE
Sunday Moderate
PM2.5
Monday Moderate
PM2.5
Tuesday Moderate
PM2.5

Snow Depth

Station Depth Elevation
Myrtle Creek 0 in 3520 ft
Schweitzer Basin 0 in 6090 ft
Mica Creek 0 in 4750 ft
Big Creek Summit 0 in 6580 ft
Squaw Flat 0 in 6240 ft

Earthquake Activity

City Distance Mag. Time & Date
No recent earthquake activity has been reported nearby.
Minimum magnitude displayed is 2.5.

Coastal Water Temperatures

Place Temperature
No Stations Reporting

Nearby Weather Stations